sensor_id;sensor_type;location;lat;lon;timestamp;temperature;humidity
33863;DHT22;20158;51.436;-2.742;2023-05-16T00:00:29;14.00;36.30
33863;DHT22;20158;51.436;-2.742;2023-05-16T00:03:00;14.00;36.50
33863;DHT22;20158;51.436;-2.742;2023-05-16T00:05:27;13.90;36.40
33863;DHT22;20158;51.436;-2.742;2023-05-16T00:07:53;13.90;36.50
33863;DHT22;20158;51.436;-2.742;2023-05-16T00:10:20;13.80;36.40
33863;DHT22;20158;51.436;-2.742;2023-05-16T00:12:46;13.80;36.50
33863;DHT22;20158;51.436;-2.742;2023-05-16T00:15:17;13.70;36.50
33863;DHT22;20158;51.436;-2.742;2023-05-16T00:17:45;13.70;36.60
33863;DHT22;20158;51.436;-2.742;2023-05-16T00:20:12;13.70;36.70
33863;DHT22;20158;51.436;-2.742;2023-05-16T00:22:39;13.60;36.60
33863;DHT22;20158;51.436;-2.742;2023-05-16T00:25:06;13.60;36.80
33863;DHT22;20158;51.436;-2.742;2023-05-16T00:27:34;13.60;36.90
33863;DHT22;20158;51.436;-2.742;2023-05-16T00:30:01;13.50;36.80
33863;DHT22;20158;51.436;-2.742;2023-05-16T00:32:27;13.40;36.70
33863;DHT22;20158;51.436;-2.742;2023-05-16T00:34:53;13.40;36.80
33863;DHT22;20158;51.436;-2.742;2023-05-16T00:37:19;13.30;36.70
33863;DHT22;20158;51.436;-2.742;2023-05-16T00:39:45;13.30;36.80
33863;DHT22;20158;51.436;-2.742;2023-05-16T00:42:12;13.20;36.80
33863;DHT22;20158;51.436;-2.742;2023-05-16T00:44:38;13.20;36.90
33863;DHT22;20158;51.436;-2.742;2023-05-16T00:47:04;13.10;36.80
33863;DHT22;20158;51.436;-2.742;2023-05-16T00:49:30;13.10;37.00
33863;DHT22;20158;51.436;-2.742;2023-05-16T00:51:57;13.00;36.90
33863;DHT22;20158;51.436;-2.742;2023-05-16T00:54:25;12.90;36.80
33863;DHT22;20158;51.436;-2.742;2023-05-16T00:56:53;12.90;37.00
33863;DHT22;20158;51.436;-2.742;2023-05-16T00:59:20;12.90;37.60
33863;DHT22;20158;51.436;-2.742;2023-05-16T01:01:46;12.80;37.00
33863;DHT22;20158;51.436;-2.742;2023-05-16T01:04:15;12.80;37.10
33863;DHT22;20158;51.436;-2.742;2023-05-16T01:06:41;12.70;37.00
33863;DHT22;20158;51.436;-2.742;2023-05-16T01:09:07;12.70;37.10
33863;DHT22;20158;51.436;-2.742;2023-05-16T01:11:42;12.70;37.20
33863;DHT22;20158;51.436;-2.742;2023-05-16T01:14:28;12.60;37.10
33863;DHT22;20158;51.436;-2.742;2023-05-16T01:17:10;12.60;37.20
33863;DHT22;20158;51.436;-2.742;2023-05-16T01:22:46;12.50;37.20
33863;DHT22;20158;51.436;-2.742;2023-05-16T01:27:58;12.40;37.20
33863;DHT22;20158;51.436;-2.742;2023-05-16T01:30:26;12.30;37.10
33863;DHT22;20158;51.436;-2.742;2023-05-16T01:32:52;12.30;37.20
33863;DHT22;20158;51.436;-2.742;2023-05-16T01:35:18;12.20;37.20
33863;DHT22;20158;51.436;-2.742;2023-05-16T01:40:48;12.10;37.30
33863;DHT22;20158;51.436;-2.742;2023-05-16T01:43:18;12.10;37.30
33863;DHT22;20158;51.436;-2.742;2023-05-16T01:45:54;12.10;37.40
33863;DHT22;20158;51.436;-2.742;2023-05-16T01:48:28;12.00;37.40
33863;DHT22;20158;51.436;-2.742;2023-05-16T01:50:56;11.90;37.30
33863;DHT22;20158;51.436;-2.742;2023-05-16T01:53:26;11.90;37.40
33863;DHT22;20158;51.436;-2.742;2023-05-16T01:55:55;11.90;37.50
33863;DHT22;20158;51.436;-2.742;2023-05-16T01:58:25;11.80;37.50
33863;DHT22;20158;51.436;-2.742;2023-05-16T02:00:53;11.80;37.60
33863;DHT22;20158;51.436;-2.742;2023-05-16T02:03:18;11.80;37.60
33863;DHT22;20158;51.436;-2.742;2023-05-16T02:05:45;11.70;37.50
33863;DHT22;20158;51.436;-2.742;2023-05-16T02:08:13;11.70;37.60
33863;DHT22;20158;51.436;-2.742;2023-05-16T02:10:39;11.70;37.70
33863;DHT22;20158;51.436;-2.742;2023-05-16T02:13:06;11.70;37.80
33863;DHT22;20158;51.436;-2.742;2023-05-16T02:15:31;11.60;37.60
33863;DHT22;20158;51.436;-2.742;2023-05-16T02:17:58;11.60;37.70
33863;DHT22;20158;51.436;-2.742;2023-05-16T02:20:24;11.60;37.80
33863;DHT22;20158;51.436;-2.742;2023-05-16T02:22:50;11.50;37.70
33863;DHT22;20158;51.436;-2.742;2023-05-16T02:25:16;11.50;37.80
33863;DHT22;20158;51.436;-2.742;2023-05-16T02:27:42;11.40;37.70
33863;DHT22;20158;51.436;-2.742;2023-05-16T02:30:09;11.50;38.00
33863;DHT22;20158;51.436;-2.742;2023-05-16T02:32:40;11.40;37.90
33863;DHT22;20158;51.436;-2.742;2023-05-16T02:35:10;11.30;37.80
33863;DHT22;20158;51.436;-2.742;2023-05-16T02:37:36;11.30;37.90
33863;DHT22;20158;51.436;-2.742;2023-05-16T02:40:03;11.20;38.40
33863;DHT22;20158;51.436;-2.742;2023-05-16T02:42:32;11.20;37.90
33863;DHT22;20158;51.436;-2.742;2023-05-16T02:44:58;11.20;38.00
33863;DHT22;20158;51.436;-2.742;2023-05-16T02:47:24;11.10;37.90
33863;DHT22;20158;51.436;-2.742;2023-05-16T02:49:51;11.10;38.00
33863;DHT22;20158;51.436;-2.742;2023-05-16T02:52:19;11.10;38.10
33863;DHT22;20158;51.436;-2.742;2023-05-16T02:54:45;11.10;38.20
33863;DHT22;20158;51.436;-2.742;2023-05-16T02:57:11;11.00;38.10
33863;DHT22;20158;51.436;-2.742;2023-05-16T02:59:37;11.00;38.20
33863;DHT22;20158;51.436;-2.742;2023-05-16T03:02:03;10.90;38.00
33863;DHT22;20158;51.436;-2.742;2023-05-16T03:04:29;10.90;38.10
33863;DHT22;20158;51.436;-2.742;2023-05-16T03:06:55;10.90;38.20
33863;DHT22;20158;51.436;-2.742;2023-05-16T03:09:21;10.90;38.20
33863;DHT22;20158;51.436;-2.742;2023-05-16T03:11:47;10.90;38.30
33863;DHT22;20158;51.436;-2.742;2023-05-16T03:14:13;10.80;38.20
33863;DHT22;20158;51.436;-2.742;2023-05-16T03:16:39;10.70;38.10
33863;DHT22;20158;51.436;-2.742;2023-05-16T03:19:09;10.70;38.20
33863;DHT22;20158;51.436;-2.742;2023-05-16T03:21:35;10.70;38.30
33863;DHT22;20158;51.436;-2.742;2023-05-16T03:24:04;10.70;38.30
33863;DHT22;20158;51.436;-2.742;2023-05-16T03:26:30;10.60;38.30
33863;DHT22;20158;51.436;-2.742;2023-05-16T03:28:56;10.60;38.30
33863;DHT22;20158;51.436;-2.742;2023-05-16T03:31:22;10.60;38.40
33863;DHT22;20158;51.436;-2.742;2023-05-16T03:33:48;10.50;38.30
33863;DHT22;20158;51.436;-2.742;2023-05-16T03:36:14;10.50;38.40
33863;DHT22;20158;51.436;-2.742;2023-05-16T03:38:40;10.40;38.30
33863;DHT22;20158;51.436;-2.742;2023-05-16T03:41:06;10.40;38.40
33863;DHT22;20158;51.436;-2.742;2023-05-16T03:43:32;10.40;38.40
33863;DHT22;20158;51.436;-2.742;2023-05-16T03:45:59;10.40;38.50
33863;DHT22;20158;51.436;-2.742;2023-05-16T03:48:25;10.30;38.40
33863;DHT22;20158;51.436;-2.742;2023-05-16T03:50:51;10.30;38.50
33863;DHT22;20158;51.436;-2.742;2023-05-16T03:53:17;10.30;38.50
33863;DHT22;20158;51.436;-2.742;2023-05-16T03:55:43;10.30;38.60
33863;DHT22;20158;51.436;-2.742;2023-05-16T03:58:09;10.20;38.40
33863;DHT22;20158;51.436;-2.742;2023-05-16T04:00:36;10.20;38.50
33863;DHT22;20158;51.436;-2.742;2023-05-16T04:03:02;10.20;38.50
33863;DHT22;20158;51.436;-2.742;2023-05-16T04:05:29;10.20;38.60
33863;DHT22;20158;51.436;-2.742;2023-05-16T04:07:55;10.10;38.50
33863;DHT22;20158;51.436;-2.742;2023-05-16T04:10:21;10.10;38.60
33863;DHT22;20158;51.436;-2.742;2023-05-16T04:12:47;10.10;38.60
33863;DHT22;20158;51.436;-2.742;2023-05-16T04:15:13;10.10;38.70
33863;DHT22;20158;51.436;-2.742;2023-05-16T04:17:39;10.00;38.60
33863;DHT22;20158;51.436;-2.742;2023-05-16T04:20:05;10.00;38.60
33863;DHT22;20158;51.436;-2.742;2023-05-16T04:22:32;10.00;38.70
33863;DHT22;20158;51.436;-2.742;2023-05-16T04:24:58;10.00;38.80
33863;DHT22;20158;51.436;-2.742;2023-05-16T04:27:24;9.90;38.60
33863;DHT22;20158;51.436;-2.742;2023-05-16T04:29:51;9.90;38.70
33863;DHT22;20158;51.436;-2.742;2023-05-16T04:32:17;9.90;38.80
33863;DHT22;20158;51.436;-2.742;2023-05-16T04:34:44;9.90;38.80
33863;DHT22;20158;51.436;-2.742;2023-05-16T04:37:13;9.90;38.90
33863;DHT22;20158;51.436;-2.742;2023-05-16T04:39:39;9.90;38.90
33863;DHT22;20158;51.436;-2.742;2023-05-16T04:42:05;9.90;39.00
33863;DHT22;20158;51.436;-2.742;2023-05-16T04:44:31;9.90;39.00
33863;DHT22;20158;51.436;-2.742;2023-05-16T04:46:57;9.80;38.90
33863;DHT22;20158;51.436;-2.742;2023-05-16T04:49:22;9.80;38.90
33863;DHT22;20158;51.436;-2.742;2023-05-16T04:51:48;9.80;38.90
33863;DHT22;20158;51.436;-2.742;2023-05-16T04:54:14;9.80;38.90
33863;DHT22;20158;51.436;-2.742;2023-05-16T04:56:40;9.80;38.90
33863;DHT22;20158;51.436;-2.742;2023-05-16T04:59:06;9.80;39.00
33863;DHT22;20158;51.436;-2.742;2023-05-16T05:01:32;9.80;39.00
33863;DHT22;20158;51.436;-2.742;2023-05-16T05:03:58;9.80;39.00
33863;DHT22;20158;51.436;-2.742;2023-05-16T05:06:24;9.90;39.20
33863;DHT22;20158;51.436;-2.742;2023-05-16T05:08:50;9.90;39.20
33863;DHT22;20158;51.436;-2.742;2023-05-16T05:11:16;9.90;39.20
33863;DHT22;20158;51.436;-2.742;2023-05-16T05:13:42;9.90;39.20
33863;DHT22;20158;51.436;-2.742;2023-05-16T05:16:08;9.90;39.20
33863;DHT22;20158;51.436;-2.742;2023-05-16T05:18:34;10.00;39.40
33863;DHT22;20158;51.436;-2.742;2023-05-16T05:21:00;10.00;39.30
33863;DHT22;20158;51.436;-2.742;2023-05-16T05:23:26;10.00;39.20
33863;DHT22;20158;51.436;-2.742;2023-05-16T05:25:51;10.10;39.50
33863;DHT22;20158;51.436;-2.742;2023-05-16T05:28:17;10.10;39.40
33863;DHT22;20158;51.436;-2.742;2023-05-16T05:30:43;10.20;39.60
33863;DHT22;20158;51.436;-2.742;2023-05-16T05:33:10;10.20;39.60
33863;DHT22;20158;51.436;-2.742;2023-05-16T05:35:36;10.30;39.80
33863;DHT22;20158;51.436;-2.742;2023-05-16T05:38:02;10.40;40.00
33863;DHT22;20158;51.436;-2.742;2023-05-16T05:40:28;10.40;39.90
33863;DHT22;20158;51.436;-2.742;2023-05-16T05:42:54;10.50;40.00
33863;DHT22;20158;51.436;-2.742;2023-05-16T05:45:20;10.60;40.10
33863;DHT22;20158;51.436;-2.742;2023-05-16T05:47:46;10.80;40.40
33863;DHT22;20158;51.436;-2.742;2023-05-16T05:50:12;10.90;40.50
33863;DHT22;20158;51.436;-2.742;2023-05-16T05:52:40;11.00;40.90
33863;DHT22;20158;51.436;-2.742;2023-05-16T05:55:06;11.20;41.70
33863;DHT22;20158;51.436;-2.742;2023-05-16T05:57:32;11.40;42.30
33863;DHT22;20158;51.436;-2.742;2023-05-16T05:59:58;11.60;43.00
33863;DHT22;20158;51.436;-2.742;2023-05-16T06:02:24;11.90;43.70
33863;DHT22;20158;51.436;-2.742;2023-05-16T06:04:50;12.10;44.30
33863;DHT22;20158;51.436;-2.742;2023-05-16T06:07:16;12.40;44.70
33863;DHT22;20158;51.436;-2.742;2023-05-16T06:09:42;12.70;45.10
33863;DHT22;20158;51.436;-2.742;2023-05-16T06:12:08;13.00;45.30
33863;DHT22;20158;51.436;-2.742;2023-05-16T06:14:34;13.30;45.60
33863;DHT22;20158;51.436;-2.742;2023-05-16T06:17:00;13.70;45.80
33863;DHT22;20158;51.436;-2.742;2023-05-16T06:19:26;14.10;46.10
33863;DHT22;20158;51.436;-2.742;2023-05-16T06:21:52;14.50;46.20
33863;DHT22;20158;51.436;-2.742;2023-05-16T06:24:18;14.90;46.30
33863;DHT22;20158;51.436;-2.742;2023-05-16T06:26:44;15.40;46.80
33863;DHT22;20158;51.436;-2.742;2023-05-16T06:29:14;15.90;47.50
33863;DHT22;20158;51.436;-2.742;2023-05-16T06:31:40;16.50;47.90
33863;DHT22;20158;51.436;-2.742;2023-05-16T06:34:06;17.10;48.30
33863;DHT22;20158;51.436;-2.742;2023-05-16T06:36:32;17.70;48.60
33863;DHT22;20158;51.436;-2.742;2023-05-16T06:38:58;18.30;48.70
33863;DHT22;20158;51.436;-2.742;2023-05-16T06:41:23;18.90;48.80
33863;DHT22;20158;51.436;-2.742;2023-05-16T06:43:51;19.50;49.00
33863;DHT22;20158;51.436;-2.742;2023-05-16T06:46:17;20.00;48.90
33863;DHT22;20158;51.436;-2.742;2023-05-16T06:48:43;20.50;48.80
33863;DHT22;20158;51.436;-2.742;2023-05-16T06:51:09;21.00;48.80
33863;DHT22;20158;51.436;-2.742;2023-05-16T06:53:35;21.50;48.70
33863;DHT22;20158;51.436;-2.742;2023-05-16T06:56:01;22.00;48.70
33863;DHT22;20158;51.436;-2.742;2023-05-16T06:58:27;22.50;48.70
33863;DHT22;20158;51.436;-2.742;2023-05-16T07:00:53;22.90;48.40
33863;DHT22;20158;51.436;-2.742;2023-05-16T07:03:19;23.30;48.20
33863;DHT22;20158;51.436;-2.742;2023-05-16T07:05:45;23.70;47.90
33863;DHT22;20158;51.436;-2.742;2023-05-16T07:08:11;24.10;47.70
33863;DHT22;20158;51.436;-2.742;2023-05-16T07:10:38;24.50;47.40
33863;DHT22;20158;51.436;-2.742;2023-05-16T07:13:05;24.80;46.90
33863;DHT22;20158;51.436;-2.742;2023-05-16T07:15:31;25.20;46.60
33863;DHT22;20158;51.436;-2.742;2023-05-16T07:17:57;25.50;46.10
33863;DHT22;20158;51.436;-2.742;2023-05-16T07:20:23;25.70;45.50
33863;DHT22;20158;51.436;-2.742;2023-05-16T07:22:49;26.00;44.90
33863;DHT22;20158;51.436;-2.742;2023-05-16T07:25:15;26.30;44.40
33863;DHT22;20158;51.436;-2.742;2023-05-16T07:27:42;26.50;43.80
33863;DHT22;20158;51.436;-2.742;2023-05-16T07:30:10;26.60;43.30
33863;DHT22;20158;51.436;-2.742;2023-05-16T07:32:37;26.70;43.00
33863;DHT22;20158;51.436;-2.742;2023-05-16T07:35:03;26.60;43.00
33863;DHT22;20158;51.436;-2.742;2023-05-16T07:37:29;26.40;43.00
33863;DHT22;20158;51.436;-2.742;2023-05-16T07:39:55;26.20;43.10
33863;DHT22;20158;51.436;-2.742;2023-05-16T07:42:21;26.10;43.20
33863;DHT22;20158;51.436;-2.742;2023-05-16T07:44:47;26.10;43.00
33863;DHT22;20158;51.436;-2.742;2023-05-16T07:47:13;26.10;42.60
33863;DHT22;20158;51.436;-2.742;2023-05-16T07:49:39;26.10;42.30
33863;DHT22;20158;51.436;-2.742;2023-05-16T07:52:05;26.20;42.10
33863;DHT22;20158;51.436;-2.742;2023-05-16T07:54:33;26.20;41.90
33863;DHT22;20158;51.436;-2.742;2023-05-16T07:56:59;26.20;41.50
33863;DHT22;20158;51.436;-2.742;2023-05-16T07:59:25;26.30;41.40
33863;DHT22;20158;51.436;-2.742;2023-05-16T08:01:51;26.30;41.30
33863;DHT22;20158;51.436;-2.742;2023-05-16T08:04:17;26.30;41.10
33863;DHT22;20158;51.436;-2.742;2023-05-16T08:06:44;26.30;41.00
33863;DHT22;20158;51.436;-2.742;2023-05-16T08:09:10;26.30;40.80
33863;DHT22;20158;51.436;-2.742;2023-05-16T08:11:36;26.30;40.80
33863;DHT22;20158;51.436;-2.742;2023-05-16T08:14:04;26.10;40.90
33863;DHT22;20158;51.436;-2.742;2023-05-16T08:16:30;26.00;40.90
33863;DHT22;20158;51.436;-2.742;2023-05-16T08:18:56;25.80;41.00
33863;DHT22;20158;51.436;-2.742;2023-05-16T08:21:23;25.70;41.10
33863;DHT22;20158;51.436;-2.742;2023-05-16T08:23:48;25.50;41.10
33863;DHT22;20158;51.436;-2.742;2023-05-16T08:26:16;25.40;41.10
33863;DHT22;20158;51.436;-2.742;2023-05-16T08:28:42;25.30;41.10
33863;DHT22;20158;51.436;-2.742;2023-05-16T08:31:08;25.20;41.10
33863;DHT22;20158;51.436;-2.742;2023-05-16T08:33:34;25.10;41.10
33863;DHT22;20158;51.436;-2.742;2023-05-16T08:36:01;25.00;41.20
33863;DHT22;20158;51.436;-2.742;2023-05-16T08:38:27;25.00;41.20
33863;DHT22;20158;51.436;-2.742;2023-05-16T08:40:53;25.00;41.30
33863;DHT22;20158;51.436;-2.742;2023-05-16T08:43:19;24.90;41.20
33863;DHT22;20158;51.436;-2.742;2023-05-16T08:45:45;24.90;41.20
33863;DHT22;20158;51.436;-2.742;2023-05-16T08:48:11;24.90;41.20
33863;DHT22;20158;51.436;-2.742;2023-05-16T08:50:39;24.90;41.10
33863;DHT22;20158;51.436;-2.742;2023-05-16T08:53:11;24.80;40.90
33863;DHT22;20158;51.436;-2.742;2023-05-16T08:55:40;24.80;41.10
33863;DHT22;20158;51.436;-2.742;2023-05-16T08:58:07;24.80;41.10
33863;DHT22;20158;51.436;-2.742;2023-05-16T09:00:34;24.90;41.20
33863;DHT22;20158;51.436;-2.742;2023-05-16T09:03:01;25.00;41.20
33863;DHT22;20158;51.436;-2.742;2023-05-16T09:05:28;25.10;41.10
33863;DHT22;20158;51.436;-2.742;2023-05-16T09:07:54;25.20;40.90
33863;DHT22;20158;51.436;-2.742;2023-05-16T09:10:20;25.30;40.80
33863;DHT22;20158;51.436;-2.742;2023-05-16T09:12:46;25.40;40.70
33863;DHT22;20158;51.436;-2.742;2023-05-16T09:15:12;25.50;40.50
33863;DHT22;20158;51.436;-2.742;2023-05-16T09:17:42;25.70;40.50
33863;DHT22;20158;51.436;-2.742;2023-05-16T09:22:36;25.80;40.10
33863;DHT22;20158;51.436;-2.742;2023-05-16T09:25:02;25.80;39.90
33863;DHT22;20158;51.436;-2.742;2023-05-16T09:27:32;25.90;39.90
33863;DHT22;20158;51.436;-2.742;2023-05-16T09:29:58;26.00;39.80
33863;DHT22;20158;51.436;-2.742;2023-05-16T09:32:24;26.10;39.70
33863;DHT22;20158;51.436;-2.742;2023-05-16T09:34:52;26.20;39.50
33863;DHT22;20158;51.436;-2.742;2023-05-16T09:37:18;26.30;39.30
33863;DHT22;20158;51.436;-2.742;2023-05-16T09:39:49;26.30;39.30
33863;DHT22;20158;51.436;-2.742;2023-05-16T09:42:17;26.40;39.20
33863;DHT22;20158;51.436;-2.742;2023-05-16T09:44:51;26.50;39.00
33863;DHT22;20158;51.436;-2.742;2023-05-16T09:47:18;26.60;38.70
33863;DHT22;20158;51.436;-2.742;2023-05-16T09:49:45;26.80;38.70
33863;DHT22;20158;51.436;-2.742;2023-05-16T09:52:12;26.90;38.40
33863;DHT22;20158;51.436;-2.742;2023-05-16T09:54:39;27.10;38.30
33863;DHT22;20158;51.436;-2.742;2023-05-16T09:57:05;27.20;38.10
33863;DHT22;20158;51.436;-2.742;2023-05-16T09:59:38;27.20;37.90
33863;DHT22;20158;51.436;-2.742;2023-05-16T10:02:07;27.30;37.80
33863;DHT22;20158;51.436;-2.742;2023-05-16T10:04:34;27.30;37.90
33863;DHT22;20158;51.436;-2.742;2023-05-16T10:07:04;27.30;37.90
33863;DHT22;20158;51.436;-2.742;2023-05-16T10:09:31;27.50;37.80
33863;DHT22;20158;51.436;-2.742;2023-05-16T10:12:00;27.60;37.60
33863;DHT22;20158;51.436;-2.742;2023-05-16T10:14:36;27.70;37.50
33863;DHT22;20158;51.436;-2.742;2023-05-16T10:17:11;27.70;37.30
33863;DHT22;20158;51.436;-2.742;2023-05-16T10:19:39;27.60;37.20
33863;DHT22;20158;51.436;-2.742;2023-05-16T10:22:06;27.50;37.40
33863;DHT22;20158;51.436;-2.742;2023-05-16T10:24:45;27.40;37.50
33863;DHT22;20158;51.436;-2.742;2023-05-16T10:27:14;27.40;37.40
33863;DHT22;20158;51.436;-2.742;2023-05-16T10:29:41;27.40;37.70
33863;DHT22;20158;51.436;-2.742;2023-05-16T10:32:09;27.50;37.50
33863;DHT22;20158;51.436;-2.742;2023-05-16T10:34:35;27.60;37.30
33863;DHT22;20158;51.436;-2.742;2023-05-16T10:37:02;27.70;37.30
33863;DHT22;20158;51.436;-2.742;2023-05-16T10:39:29;27.80;37.30
33863;DHT22;20158;51.436;-2.742;2023-05-16T10:41:57;27.90;37.50
33863;DHT22;20158;51.436;-2.742;2023-05-16T10:44:24;28.00;37.60
33863;DHT22;20158;51.436;-2.742;2023-05-16T10:46:50;28.00;37.70
33863;DHT22;20158;51.436;-2.742;2023-05-16T10:49:24;28.00;37.50
33863;DHT22;20158;51.436;-2.742;2023-05-16T10:52:11;27.90;37.40
33863;DHT22;20158;51.436;-2.742;2023-05-16T10:57:18;27.90;37.60
33863;DHT22;20158;51.436;-2.742;2023-05-16T10:59:47;27.80;37.40
33863;DHT22;20158;51.436;-2.742;2023-05-16T11:04:57;27.70;37.60
33863;DHT22;20158;51.436;-2.742;2023-05-16T11:07:25;27.60;37.40
33863;DHT22;20158;51.436;-2.742;2023-05-16T11:10:21;27.60;37.70
33863;DHT22;20158;51.436;-2.742;2023-05-16T11:12:48;27.60;37.60
33863;DHT22;20158;51.436;-2.742;2023-05-16T11:15:20;27.70;37.70
33863;DHT22;20158;51.436;-2.742;2023-05-16T11:17:46;27.80;37.40
33863;DHT22;20158;51.436;-2.742;2023-05-16T11:20:28;27.80;37.40
33863;DHT22;20158;51.436;-2.742;2023-05-16T11:23:21;27.60;37.20
33863;DHT22;20158;51.436;-2.742;2023-05-16T11:28:19;27.30;37.70
33863;DHT22;20158;51.436;-2.742;2023-05-16T11:30:50;27.30;37.80
33863;DHT22;20158;51.436;-2.742;2023-05-16T11:33:17;27.40;37.60
33863;DHT22;20158;51.436;-2.742;2023-05-16T11:36:05;27.50;37.60
33863;DHT22;20158;51.436;-2.742;2023-05-16T11:38:32;27.50;37.30
33863;DHT22;20158;51.436;-2.742;2023-05-16T11:41:05;27.50;37.40
33863;DHT22;20158;51.436;-2.742;2023-05-16T11:43:43;27.60;37.50
33863;DHT22;20158;51.436;-2.742;2023-05-16T11:46:13;27.70;37.30
33863;DHT22;20158;51.436;-2.742;2023-05-16T11:48:40;27.90;37.40
33863;DHT22;20158;51.436;-2.742;2023-05-16T11:51:06;28.00;37.20
33863;DHT22;20158;51.436;-2.742;2023-05-16T11:53:32;28.20;37.20
33863;DHT22;20158;51.436;-2.742;2023-05-16T11:55:59;28.30;37.20
33863;DHT22;20158;51.436;-2.742;2023-05-16T11:58:27;28.30;37.10
33863;DHT22;20158;51.436;-2.742;2023-05-16T12:00:53;28.40;37.10
33863;DHT22;20158;51.436;-2.742;2023-05-16T12:03:19;28.40;37.10
33863;DHT22;20158;51.436;-2.742;2023-05-16T12:05:50;28.50;37.10
33863;DHT22;20158;51.436;-2.742;2023-05-16T12:08:18;28.50;36.90
33863;DHT22;20158;51.436;-2.742;2023-05-16T12:10:45;28.60;36.80
33863;DHT22;20158;51.436;-2.742;2023-05-16T12:13:11;28.70;36.80
33863;DHT22;20158;51.436;-2.742;2023-05-16T12:15:37;28.70;36.80
33863;DHT22;20158;51.436;-2.742;2023-05-16T12:18:03;28.60;36.70
33863;DHT22;20158;51.436;-2.742;2023-05-16T12:20:29;28.50;36.70
33863;DHT22;20158;51.436;-2.742;2023-05-16T12:22:56;28.30;36.90
33863;DHT22;20158;51.436;-2.742;2023-05-16T12:25:30;28.20;37.00
33863;DHT22;20158;51.436;-2.742;2023-05-16T12:27:58;28.00;36.80
33863;DHT22;20158;51.436;-2.742;2023-05-16T12:30:25;27.90;37.00
33863;DHT22;20158;51.436;-2.742;2023-05-16T12:33:02;27.70;37.00
33863;DHT22;20158;51.436;-2.742;2023-05-16T12:35:30;27.80;37.10
33863;DHT22;20158;51.436;-2.742;2023-05-16T12:37:56;27.80;37.00
33863;DHT22;20158;51.436;-2.742;2023-05-16T12:40:22;27.70;37.00
33863;DHT22;20158;51.436;-2.742;2023-05-16T12:42:57;27.70;37.20
33863;DHT22;20158;51.436;-2.742;2023-05-16T12:45:26;27.90;37.30
33863;DHT22;20158;51.436;-2.742;2023-05-16T12:47:52;28.10;37.20
33863;DHT22;20158;51.436;-2.742;2023-05-16T12:50:19;28.30;37.10
33863;DHT22;20158;51.436;-2.742;2023-05-16T12:52:53;28.50;37.10
33863;DHT22;20158;51.436;-2.742;2023-05-16T12:55:21;28.70;37.00
33863;DHT22;20158;51.436;-2.742;2023-05-16T12:57:48;28.90;36.80
33863;DHT22;20158;51.436;-2.742;2023-05-16T13:00:16;28.90;36.90
33863;DHT22;20158;51.436;-2.742;2023-05-16T13:02:44;28.90;36.90
33863;DHT22;20158;51.436;-2.742;2023-05-16T13:05:10;28.90;36.90
33863;DHT22;20158;51.436;-2.742;2023-05-16T13:07:37;29.00;36.90
33863;DHT22;20158;51.436;-2.742;2023-05-16T13:10:09;29.00;37.00
33863;DHT22;20158;51.436;-2.742;2023-05-16T13:12:36;29.00;37.10
33863;DHT22;20158;51.436;-2.742;2023-05-16T13:15:04;29.10;37.20
33863;DHT22;20158;51.436;-2.742;2023-05-16T13:17:31;29.20;37.20
33863;DHT22;20158;51.436;-2.742;2023-05-16T13:19:57;29.30;37.10
33863;DHT22;20158;51.436;-2.742;2023-05-16T13:22:22;29.40;37.10
33863;DHT22;20158;51.436;-2.742;2023-05-16T13:24:48;29.40;37.10
33863;DHT22;20158;51.436;-2.742;2023-05-16T13:27:17;29.40;37.20
33863;DHT22;20158;51.436;-2.742;2023-05-16T13:29:43;29.40;37.20
33863;DHT22;20158;51.436;-2.742;2023-05-16T13:32:09;29.40;37.30
33863;DHT22;20158;51.436;-2.742;2023-05-16T13:34:35;29.50;37.40
33863;DHT22;20158;51.436;-2.742;2023-05-16T13:37:01;29.50;37.40
33863;DHT22;20158;51.436;-2.742;2023-05-16T13:39:27;29.70;37.50
33863;DHT22;20158;51.436;-2.742;2023-05-16T13:41:53;29.80;37.50
33863;DHT22;20158;51.436;-2.742;2023-05-16T13:44:19;29.90;37.40
33863;DHT22;20158;51.436;-2.742;2023-05-16T13:46:46;30.10;37.30
33863;DHT22;20158;51.436;-2.742;2023-05-16T13:49:11;30.30;37.20
33863;DHT22;20158;51.436;-2.742;2023-05-16T13:51:38;30.40;37.10
33863;DHT22;20158;51.436;-2.742;2023-05-16T13:54:04;30.60;37.20
33863;DHT22;20158;51.436;-2.742;2023-05-16T13:56:30;30.70;37.10
33863;DHT22;20158;51.436;-2.742;2023-05-16T13:58:55;30.90;37.20
33863;DHT22;20158;51.436;-2.742;2023-05-16T14:01:21;31.00;37.10
33863;DHT22;20158;51.436;-2.742;2023-05-16T14:03:47;31.20;37.10
33863;DHT22;20158;51.436;-2.742;2023-05-16T14:06:13;31.30;37.00
33863;DHT22;20158;51.436;-2.742;2023-05-16T14:08:39;31.50;37.10
33863;DHT22;20158;51.436;-2.742;2023-05-16T14:11:05;31.60;37.00
33863;DHT22;20158;51.436;-2.742;2023-05-16T14:13:31;31.70;37.10
33863;DHT22;20158;51.436;-2.742;2023-05-16T14:15:57;31.80;37.10
33863;DHT22;20158;51.436;-2.742;2023-05-16T14:18:23;31.90;37.00
33863;DHT22;20158;51.436;-2.742;2023-05-16T14:20:49;31.90;36.90
33863;DHT22;20158;51.436;-2.742;2023-05-16T14:23:15;31.90;37.10
33863;DHT22;20158;51.436;-2.742;2023-05-16T14:25:41;31.90;37.10
33863;DHT22;20158;51.436;-2.742;2023-05-16T14:28:07;31.90;37.10
33863;DHT22;20158;51.436;-2.742;2023-05-16T14:30:33;31.90;37.10
33863;DHT22;20158;51.436;-2.742;2023-05-16T14:32:59;32.10;37.10
33863;DHT22;20158;51.436;-2.742;2023-05-16T14:35:25;32.20;37.40
33863;DHT22;20158;51.436;-2.742;2023-05-16T14:37:51;32.30;37.00
33863;DHT22;20158;51.436;-2.742;2023-05-16T14:40:17;32.40;37.00
33863;DHT22;20158;51.436;-2.742;2023-05-16T14:42:43;32.50;36.90
33863;DHT22;20158;51.436;-2.742;2023-05-16T14:45:09;32.50;36.90
33863;DHT22;20158;51.436;-2.742;2023-05-16T14:47:35;32.60;36.90
33863;DHT22;20158;51.436;-2.742;2023-05-16T14:50:02;32.60;36.80
33863;DHT22;20158;51.436;-2.742;2023-05-16T14:52:28;32.60;36.80
33863;DHT22;20158;51.436;-2.742;2023-05-16T14:54:54;32.60;36.80
33863;DHT22;20158;51.436;-2.742;2023-05-16T14:57:20;32.60;36.80
33863;DHT22;20158;51.436;-2.742;2023-05-16T14:59:46;32.50;36.90
33863;DHT22;20158;51.436;-2.742;2023-05-16T15:02:13;32.40;37.00
33863;DHT22;20158;51.436;-2.742;2023-05-16T15:04:38;32.40;37.10
33863;DHT22;20158;51.436;-2.742;2023-05-16T15:07:04;32.50;37.10
33863;DHT22;20158;51.436;-2.742;2023-05-16T15:09:30;32.50;37.10
33863;DHT22;20158;51.436;-2.742;2023-05-16T15:11:56;32.50;37.10
33863;DHT22;20158;51.436;-2.742;2023-05-16T15:14:22;32.60;37.00
33863;DHT22;20158;51.436;-2.742;2023-05-16T15:16:48;32.60;37.00
33863;DHT22;20158;51.436;-2.742;2023-05-16T15:19:14;32.70;37.00
33863;DHT22;20158;51.436;-2.742;2023-05-16T15:21:40;32.80;37.00
33863;DHT22;20158;51.436;-2.742;2023-05-16T15:24:06;32.90;37.00
33863;DHT22;20158;51.436;-2.742;2023-05-16T15:26:32;33.00;36.90
33863;DHT22;20158;51.436;-2.742;2023-05-16T15:28:58;33.10;36.80
33863;DHT22;20158;51.436;-2.742;2023-05-16T15:31:24;33.20;36.70
33863;DHT22;20158;51.436;-2.742;2023-05-16T15:33:50;33.30;36.70
33863;DHT22;20158;51.436;-2.742;2023-05-16T15:36:16;33.40;36.60